Terminal Aerodrome Forecast
Issued by NWS Glasgow, MT

Home | Current Version | Previous Version | Text Only | Print | Product List | Glossary On
Versions: 1 2 3 4 5 6 7 8 9 10 11 12 13 14 15 16 17 18 19 20 21 22 23 24
000
FTUS45 KGGW 012300
TAFGGW
TAF
KGGW 012323Z 0200/0224 12009KT P6SM SCT120 BKN200
     FM020800 VRB05KT P6SM VCSH SCT050 OVC090
     FM021200 34011KT 3SM -SN SCT006 OVC011
     FM022000 VRB06KT P6SM VCSH OVC015=

USA.gov is the U.S. government's official web portal to all federal, state and local government web resources and services.